createdAt,value
2022-12-15T00:00:01.024Z,1658.84
2022-12-15T00:01:46.682Z,1658.84
2022-12-15T00:03:45.399Z,1658.84
2022-12-15T00:05:43.942Z,1658.84
2022-12-15T00:07:43.738Z,1658.84
2022-12-15T00:09:53.503Z,1658.84
2022-12-15T00:11:43.254Z,1658.84
2022-12-15T00:13:44.489Z,1658.84
2022-12-15T00:15:42.914Z,1658.84
2022-12-15T00:17:43.760Z,1658.84
2022-12-15T00:19:43.581Z,1658.84
2022-12-15T00:21:42.874Z,1658.84
2022-12-15T00:23:43.776Z,1658.84
2022-12-15T00:25:46.409Z,1658.84
2022-12-15T00:27:42.890Z,1658.84
2022-12-15T00:29:43.110Z,1658.84
2022-12-15T00:31:48.357Z,1658.84
2022-12-15T00:33:44.059Z,1658.84
2022-12-15T00:35:43.253Z,1658.84
2022-12-15T00:37:46.302Z,1658.84
2022-12-15T00:39:48.847Z,1658.84
2022-12-15T00:41:43.048Z,1658.84
2022-12-15T00:43:46.926Z,1658.84
2022-12-15T00:45:50.300Z,1658.84
2022-12-15T00:47:43.359Z,1658.84
2022-12-15T00:49:43.018Z,1658.84
2022-12-15T00:51:44.039Z,1658.84
2022-12-15T00:53:44.351Z,1658.84
2022-12-15T00:55:48.367Z,1658.84
2022-12-15T00:57:43.285Z,1658.84
2022-12-15T00:59:43.356Z,1658.84
2022-12-15T01:01:46.344Z,1658.84
2022-12-15T01:03:46.341Z,1658.84
2022-12-15T01:05:43.598Z,1658.84
2022-12-15T01:07:42.670Z,1658.84
2022-12-15T01:09:43.148Z,1658.84
2022-12-15T01:11:42.684Z,1658.84
2022-12-15T01:13:43.716Z,1658.84
2022-12-15T01:15:43.208Z,1658.84
2022-12-15T01:17:43.771Z,1658.84
2022-12-15T01:19:46.061Z,1658.84
2022-12-15T01:21:47.637Z,1658.84
2022-12-15T01:23:42.996Z,1658.84
2022-12-15T01:25:42.863Z,1658.84
2022-12-15T01:27:43.064Z,1658.84
2022-12-15T01:29:42.987Z,1658.84
2022-12-15T01:31:43.962Z,1658.84
2022-12-15T01:33:44.030Z,1658.84
2022-12-15T01:35:42.941Z,1658.84
2022-12-15T01:37:43.257Z,1658.84
2022-12-15T01:39:50.175Z,1658.84
2022-12-15T01:41:43.046Z,1658.84
2022-12-15T01:43:43.910Z,1658.84
2022-12-15T01:45:43.467Z,1658.84
2022-12-15T01:47:43.401Z,1658.84
2022-12-15T01:49:43.294Z,1658.84
2022-12-15T01:51:43.362Z,1658.84
2022-12-15T01:53:45.979Z,1658.84
2022-12-15T01:55:44.696Z,1658.84
2022-12-15T01:57:45.721Z,1658.84
2022-12-15T01:59:42.807Z,1658.84
2022-12-15T02:01:50.016Z,1658.84
2022-12-15T02:03:48.927Z,1658.84
2022-12-15T02:05:43.655Z,1658.84
2022-12-15T02:07:42.832Z,1658.84
2022-12-15T02:09:43.245Z,1658.84
2022-12-15T02:11:43.565Z,1658.84
2022-12-15T02:13:43.260Z,1658.84
2022-12-15T02:15:43.076Z,1658.84
2022-12-15T02:17:43.883Z,1658.84
2022-12-15T02:19:42.854Z,1658.84
2022-12-15T02:21:42.942Z,1658.84
2022-12-15T02:23:43.919Z,1658.84
2022-12-15T02:25:46.137Z,1658.84
2022-12-15T02:27:42.956Z,1658.84
2022-12-15T02:29:43.105Z,1658.84
2022-12-15T02:31:42.864Z,1658.84
2022-12-15T02:33:43.863Z,1658.84
2022-12-15T02:35:43.245Z,1658.84
2022-12-15T02:37:42.538Z,1658.84
2022-12-15T02:39:42.972Z,1658.84
2022-12-15T02:41:43.459Z,1658.84
2022-12-15T02:43:43.242Z,1658.84
2022-12-15T02:45:42.900Z,1658.84
2022-12-15T02:47:43.498Z,1658.84
2022-12-15T02:49:42.693Z,1658.84
2022-12-15T02:51:42.785Z,1658.84
2022-12-15T02:53:43.856Z,1658.84
2022-12-15T02:55:43.553Z,1658.84
2022-12-15T02:57:42.600Z,1658.84
2022-12-15T02:59:43.180Z,1658.84
2022-12-15T03:01:49.915Z,1658.84
2022-12-15T03:03:45.684Z,1658.84
2022-12-15T03:05:42.788Z,1658.84
2022-12-15T03:07:49.749Z,1658.84
2022-12-15T03:09:43.569Z,1658.84
2022-12-15T03:11:42.862Z,1658.84
2022-12-15T03:13:43.868Z,1658.84
2022-12-15T03:15:47.073Z,1658.84
2022-12-15T03:17:43.677Z,1658.84
2022-12-15T03:19:43.114Z,1658.84
2022-12-15T03:21:43.280Z,1658.84
2022-12-15T03:23:43.083Z,1658.84
2022-12-15T03:25:43.136Z,1658.84
2022-12-15T03:27:43.352Z,1658.84
2022-12-15T03:29:42.733Z,1658.84
2022-12-15T03:31:49.984Z,1658.84
2022-12-15T03:33:44.492Z,1658.84
2022-12-15T03:35:42.633Z,1658.84
2022-12-15T03:37:42.911Z,1658.84
2022-12-15T03:39:43.419Z,1658.84
2022-12-15T03:41:43.696Z,1658.84
2022-12-15T03:43:43.514Z,1658.84
2022-12-15T03:45:43.367Z,1658.84
2022-12-15T03:47:48.949Z,1658.84
2022-12-15T03:49:42.963Z,1658.84
2022-12-15T03:51:42.975Z,1658.84
2022-12-15T03:53:44.044Z,1658.84
2022-12-15T03:55:42.699Z,1658.84
2022-12-15T03:57:42.855Z,1658.84
2022-12-15T03:59:43.152Z,1658.84
2022-12-15T04:01:48.686Z,1658.84
2022-12-15T04:03:47.947Z,1658.84
2022-12-15T04:05:43.480Z,1658.84
2022-12-15T04:07:43.461Z,1658.84
2022-12-15T04:09:45.944Z,1658.84
2022-12-15T04:11:50.763Z,1658.84
2022-12-15T04:13:43.934Z,1658.84
2022-12-15T04:15:45.799Z,1658.84
2022-12-15T04:17:50.429Z,1658.84
2022-12-15T04:19:43.197Z,1658.84
2022-12-15T04:21:46.704Z,1658.84
2022-12-15T04:23:48.006Z,1658.84
2022-12-15T04:25:43.235Z,1658.84
2022-12-15T04:27:43.284Z,1658.84
2022-12-15T04:29:43.174Z,1658.84
2022-12-15T04:31:43.594Z,1658.84
2022-12-15T04:33:53.189Z,1658.84
2022-12-15T04:35:43.494Z,1658.84
2022-12-15T04:37:42.567Z,1658.84
2022-12-15T04:39:47.050Z,1658.84
2022-12-15T04:41:43.514Z,1658.84
2022-12-15T04:43:44.252Z,1658.84
2022-12-15T04:45:54.269Z,1658.84
2022-12-15T04:47:43.661Z,1658.84
2022-12-15T04:49:43.546Z,1658.84
2022-12-15T04:51:46.753Z,1658.84
2022-12-15T04:53:43.721Z,1658.84
2022-12-15T04:55:43.576Z,1658.84
2022-12-15T04:57:48.839Z,1658.84
2022-12-15T04:59:42.943Z,1658.84
2022-12-15T05:01:46.426Z,1658.84
2022-12-15T05:03:52.308Z,1658.84
2022-12-15T05:05:43.439Z,1658.84
2022-12-15T05:07:42.859Z,1658.84
2022-12-15T05:09:46.597Z,1658.84
2022-12-15T05:11:45.603Z,1658.84
2022-12-15T05:13:43.322Z,1658.84
2022-12-15T05:15:45.979Z,1658.84
2022-12-15T05:17:49.637Z,1658.84
2022-12-15T05:19:42.584Z,1658.84
2022-12-15T05:21:46.356Z,1658.84
2022-12-15T05:23:43.679Z,1658.84
2022-12-15T05:25:43.614Z,1658.84
2022-12-15T05:27:49.126Z,1658.84
2022-12-15T05:29:43.046Z,1658.84
2022-12-15T05:31:43.949Z,1658.84
2022-12-15T05:33:46.365Z,1658.84
2022-12-15T05:35:47.142Z,1658.84
2022-12-15T05:37:43.260Z,1658.84
2022-12-15T05:39:46.709Z,1658.84
2022-12-15T05:41:43.310Z,1658.84
2022-12-15T05:43:49.784Z,1658.84
2022-12-15T05:45:42.463Z,1658.84
2022-12-15T05:47:43.814Z,1658.84
2022-12-15T05:49:43.552Z,1658.84
2022-12-15T05:51:42.811Z,1658.84
2022-12-15T05:53:46.325Z,1658.84
2022-12-15T05:55:43.840Z,1658.84
2022-12-15T05:57:46.336Z,1658.84
2022-12-15T05:59:50.678Z,1658.84
2022-12-15T06:01:46.087Z,1658.84
2022-12-15T06:03:46.794Z,1658.84
2022-12-15T06:05:44.323Z,1658.84
2022-12-15T06:07:43.562Z,1658.84
2022-12-15T06:09:46.511Z,1658.84
2022-12-15T06:11:43.419Z,1658.84
2022-12-15T06:13:44.195Z,1658.84
2022-12-15T06:15:46.272Z,1658.84
2022-12-15T06:17:50.856Z,1658.84
2022-12-15T06:19:46.629Z,1658.84
2022-12-15T06:21:45.984Z,1658.84
2022-12-15T06:23:46.613Z,1658.84
2022-12-15T06:25:43.669Z,1658.84
2022-12-15T06:27:46.327Z,1658.84
2022-12-15T06:29:43.359Z,1658.84
2022-12-15T06:31:44.109Z,1658.84
2022-12-15T06:33:46.517Z,1658.84
2022-12-15T06:35:43.961Z,1658.84
2022-12-15T06:37:43.332Z,1658.84
2022-12-15T06:39:46.449Z,1658.84
2022-12-15T06:41:45.968Z,1658.84
2022-12-15T06:43:43.519Z,1658.84
2022-12-15T06:45:46.316Z,1658.84
2022-12-15T06:47:44.040Z,1658.84
2022-12-15T06:49:43.231Z,1658.84
2022-12-15T06:51:51.241Z,1658.84
2022-12-15T06:53:44.134Z,1658.84
2022-12-15T06:55:42.957Z,1658.84
2022-12-15T06:57:51.684Z,1658.84
2022-12-15T06:59:43.253Z,1658.84
2022-12-15T07:01:46.528Z,1658.84
2022-12-15T07:03:51.821Z,1658.84
2022-12-15T07:05:43.502Z,1658.84
2022-12-15T07:07:43.201Z,1658.84
2022-12-15T07:09:50.352Z,1658.84
2022-12-15T07:11:43.129Z,1658.84
2022-12-15T07:13:44.002Z,1658.84
2022-12-15T07:15:49.583Z,1658.84
2022-12-15T07:17:44.053Z,1658.84
2022-12-15T07:19:43.433Z,1658.84
2022-12-15T07:21:47.706Z,1658.84
2022-12-15T07:24:10.375Z,1658.84
2022-12-15T07:25:44.201Z,1658.84
2022-12-15T07:27:50.864Z,1658.84
2022-12-15T07:29:46.328Z,1658.84
2022-12-15T07:31:47.490Z,1658.84
2022-12-15T07:33:46.712Z,1658.84
2022-12-15T07:35:44.509Z,1658.84
2022-12-15T07:37:48.555Z,1658.84
2022-12-15T07:39:47.243Z,1658.84
2022-12-15T07:41:42.682Z,1658.84
2022-12-15T07:43:43.666Z,1658.84
2022-12-15T07:45:51.308Z,1658.84
2022-12-15T07:47:44.141Z,1658.84
2022-12-15T07:49:47.203Z,1658.84
2022-12-15T07:51:56.204Z,1658.84
2022-12-15T07:53:43.797Z,1658.84
2022-12-15T07:56:20.024Z,1658.84
2022-12-15T07:57:58.208Z,1658.84
2022-12-15T07:59:42.899Z,1658.84
2022-12-15T08:01:52.848Z,1658.84
2022-12-15T08:03:48.752Z,1658.84
2022-12-15T08:05:42.823Z,1658.84
2022-12-15T08:07:45.721Z,1658.84
2022-12-15T08:09:47.570Z,1658.84
2022-12-15T08:11:43.559Z,1658.84
2022-12-15T08:14:29.111Z,1658.84
2022-12-15T08:15:48.787Z,1658.84
2022-12-15T08:17:44.429Z,1658.84
2022-12-15T08:19:42.872Z,1658.84
2022-12-15T08:21:57.796Z,1658.84
2022-12-15T08:23:43.345Z,1658.84
2022-12-15T08:25:42.794Z,1658.84
2022-12-15T08:27:48.913Z,1658.84
2022-12-15T08:30:26.166Z,1658.84
2022-12-15T08:31:43.400Z,1658.84
2022-12-15T08:33:48.404Z,1658.84
2022-12-15T08:36:21.033Z,1658.84
2022-12-15T08:37:43.195Z,1658.84
2022-12-15T08:39:47.361Z,1658.84
2022-12-15T08:41:43.551Z,1658.84
2022-12-15T08:43:48.095Z,1658.84
2022-12-15T08:45:43.352Z,1658.84
2022-12-15T08:47:42.908Z,1658.84
2022-12-15T08:49:45.040Z,1658.84
2022-12-15T08:51:43.582Z,1658.84
2022-12-15T08:54:18.816Z,1658.84
2022-12-15T08:55:45.179Z,1658.84
2022-12-15T08:57:43.436Z,1658.84
2022-12-15T08:59:42.826Z,1658.84
2022-12-15T09:01:57.336Z,1658.84
2022-12-15T09:03:45.050Z,1658.84
2022-12-15T09:05:43.674Z,1658.84
2022-12-15T09:07:48.331Z,1658.84
2022-12-15T09:09:48.146Z,1658.84
2022-12-15T09:11:48.927Z,1658.84
2022-12-15T09:13:43.397Z,1658.84
2022-12-15T09:16:23.105Z,1658.84
2022-12-15T09:17:53.358Z,1658.84
2022-12-15T09:19:42.835Z,1658.84
2022-12-15T09:21:47.887Z,1658.84
2022-12-15T09:23:48.074Z,1658.84
2022-12-15T09:25:54.338Z,1658.84
2022-12-15T09:27:43.131Z,1658.84
2022-12-15T09:29:47.584Z,1658.84
2022-12-15T09:31:44.117Z,1658.84
2022-12-15T09:33:45.431Z,1658.84
2022-12-15T09:35:46.850Z,1658.84
2022-12-15T09:37:48.434Z,1658.84
2022-12-15T09:39:43.044Z,1658.84
2022-12-15T09:41:46.285Z,1658.84
2022-12-15T09:44:21.602Z,1658.84
2022-12-15T09:45:43.097Z,1658.84
2022-12-15T09:47:46.817Z,1658.84
2022-12-15T09:49:43.288Z,1658.84
2022-12-15T09:51:42.885Z,1658.84
2022-12-15T09:54:31.103Z,1658.84
2022-12-15T09:55:45.186Z,1658.84
2022-12-15T09:57:46.441Z,131.68
2022-12-15T09:59:51.251Z,131.68
2022-12-15T10:01:49.480Z,131.68
2022-12-15T10:03:50.277Z,8899.2
2022-12-15T10:06:32.948Z,8899.2
2022-12-15T10:08:13.265Z,8899.2
2022-12-15T10:09:46.817Z,8899.2
2022-12-15T10:11:44.815Z,8899.2
2022-12-15T10:14:01.539Z,8899.2
2022-12-15T10:15:46.654Z,8899.2
2022-12-15T10:17:46.393Z,8899.2
2022-12-15T10:19:49.914Z,8899.2
2022-12-15T10:21:44.906Z,8899.2
2022-12-15T10:23:48.039Z,8899.2
2022-12-15T10:27:43.868Z,8899.2
2022-12-15T10:31:47.390Z,8899.2
2022-12-15T10:35:44.943Z,8899.2
2022-12-15T10:39:51.430Z,8899.2
2022-12-15T10:43:45.401Z,8899.2
2022-12-15T10:47:44.903Z,8899.2
2022-12-15T10:51:46.569Z,8899.2
2022-12-15T10:55:49.977Z,8899.2
2022-12-15T10:59:46.577Z,8899.2
2022-12-15T11:03:56.944Z,8899.2
2022-12-15T11:07:43.035Z,8899.2
2022-12-15T11:15:44.283Z,17112.7
2022-12-15T11:19:45.084Z,13.87
2022-12-15T11:23:46.687Z,7.21
2022-12-15T11:27:48.542Z,7.21
2022-12-15T11:31:43.187Z,1785.67
2022-12-15T11:35:42.683Z,1457.92
2022-12-15T11:39:44.072Z,1457.92
2022-12-15T11:43:45.879Z,1457.92
2022-12-15T11:47:45.107Z,1457.92
2022-12-15T11:51:47.546Z,1457.92
2022-12-15T11:55:53.643Z,1457.92
2022-12-15T11:59:45.240Z,1457.92
2022-12-15T12:03:46.175Z,1457.92
2022-12-15T12:07:53.160Z,1457.92
2022-12-15T12:11:45.348Z,1457.92
2022-12-15T12:15:47.334Z,1457.92
2022-12-15T12:19:50.918Z,1457.92
2022-12-15T12:23:46.892Z,1457.92
2022-12-15T12:27:48.776Z,1457.92
2022-12-15T12:31:46.606Z,1457.92
2022-12-15T12:36:18.148Z,1457.92
2022-12-15T12:47:45.207Z,10.12
2022-12-15T12:51:46.811Z,10.12
2022-12-15T12:55:48.622Z,5.75
2022-12-15T12:59:48.862Z,1572.66
2022-12-15T13:03:47.391Z,1572.66
2022-12-15T13:07:46.805Z,3.53
2022-12-15T13:11:43.988Z,1151.94
2022-12-15T13:15:51.559Z,1151.94
2022-12-15T13:19:50.542Z,2.87
2022-12-15T13:23:46.014Z,988.62
2022-12-15T13:27:44.877Z,988.62
2022-12-15T13:31:52.830Z,2.52
2022-12-15T13:35:42.556Z,2.43
2022-12-15T13:39:47.020Z,2.43
2022-12-15T13:44:30.272Z,2.34
2022-12-15T13:47:43.500Z,843.15
2022-12-15T13:59:45.215Z,2.17
2022-12-15T14:03:45.025Z,2.17
2022-12-15T14:07:52.644Z,2.11
2022-12-15T14:12:26.084Z,2.09
2022-12-15T14:15:45.422Z,2.09
2022-12-15T14:19:50.904Z,2.09
2022-12-15T14:24:11.309Z,2.06
2022-12-15T14:27:50.794Z,2.06
2022-12-15T14:31:46.797Z,1.98
2022-12-15T14:35:49.421Z,1.98
2022-12-15T14:39:43.975Z,1.98
2022-12-15T14:43:47.959Z,723.38
2022-12-15T14:47:42.960Z,1.91
2022-12-15T14:51:44.312Z,1.91
2022-12-15T14:55:42.972Z,695.47
2022-12-15T14:59:44.329Z,1.86
2022-12-15T15:03:11.640Z,8899.2
2022-12-15T15:03:14.141Z,822.26
2022-12-15T15:04:11.394Z,1.86
2022-12-15T15:05:43.071Z,677.29
2022-12-15T15:07:48.562Z,677.29
2022-12-15T15:09:43.536Z,677.29
2022-12-15T15:11:42.868Z,659.47
2022-12-15T15:13:50.575Z,659.47
2022-12-15T15:15:42.659Z,659.47
2022-12-15T15:17:43.850Z,1.76
2022-12-15T15:19:46.069Z,1.76
2022-12-15T15:21:42.812Z,1.76
2022-12-15T15:23:43.017Z,641.97
2022-12-15T15:25:50.851Z,641.97
2022-12-15T15:27:43.934Z,641.97
2022-12-15T15:29:43.610Z,1.74
2022-12-15T15:31:52.355Z,1.74
2022-12-15T15:33:43.460Z,1.74
2022-12-15T15:35:43.426Z,624.81
2022-12-15T15:37:50.201Z,624.81
2022-12-15T15:39:43.608Z,624.81
2022-12-15T15:41:43.492Z,607.98
2022-12-15T15:43:51.101Z,607.98
2022-12-15T15:45:42.931Z,607.98
2022-12-15T15:47:43.651Z,599.69
2022-12-15T15:49:50.644Z,599.69
2022-12-15T15:51:42.841Z,599.69
2022-12-15T15:53:42.886Z,1.58
2022-12-15T15:55:50.613Z,1.58
2022-12-15T15:57:42.712Z,1.58
2022-12-15T15:59:43.845Z,575.29
2022-12-15T16:01:48.255Z,575.29
2022-12-15T16:03:45.246Z,575.29
2022-12-15T16:05:43.363Z,1.51
2022-12-15T16:07:44.659Z,1.51
2022-12-15T16:09:43.786Z,1.51
2022-12-15T16:11:42.943Z,1.47
2022-12-15T16:13:48.955Z,1.47
2022-12-15T16:15:42.858Z,1.47
2022-12-15T16:17:43.584Z,1.47
2022-12-15T16:19:50.951Z,1.47
2022-12-15T16:21:43.076Z,1.47
2022-12-15T16:23:42.537Z,1.47
2022-12-15T16:25:55.274Z,1.47
2022-12-15T16:27:42.714Z,1.47
2022-12-15T16:29:44.084Z,1.47
2022-12-15T16:31:50.399Z,1.47
2022-12-15T16:33:43.164Z,1.47
2022-12-15T16:35:42.557Z,1.47
2022-12-15T16:37:50.649Z,1.47
2022-12-15T16:39:43.947Z,1.47
2022-12-15T16:41:43.560Z,1.47
2022-12-15T16:43:49.569Z,1.47
2022-12-15T16:45:43.097Z,1.47
2022-12-15T16:47:44.298Z,1.47
2022-12-15T16:49:51.669Z,1.47
2022-12-15T16:51:43.298Z,1.47
2022-12-15T16:53:43.435Z,1.47
2022-12-15T16:55:49.454Z,1.47
2022-12-15T16:57:43.220Z,1.47
2022-12-15T17:00:18.943Z,1.47
2022-12-15T17:01:51.988Z,1.47
2022-12-15T17:03:46.777Z,1.47
2022-12-15T17:05:43.145Z,1.47
2022-12-15T17:07:43.739Z,1.47
2022-12-15T17:09:43.150Z,1.47
2022-12-15T17:11:42.761Z,1.47
2022-12-15T17:13:50.588Z,1.47
2022-12-15T17:15:43.148Z,1.47
2022-12-15T17:17:42.993Z,1.47
2022-12-15T17:19:52.722Z,11.71
2022-12-15T17:22:11.940Z,11.71
2022-12-15T17:23:44.147Z,11.71
2022-12-15T17:26:34.365Z,6.17
2022-12-15T17:28:09.367Z,6.17
2022-12-15T17:29:43.058Z,6.17
2022-12-15T17:31:47.176Z,6.17
2022-12-15T17:33:43.584Z,6.17
2022-12-15T17:35:43.132Z,6.17
2022-12-15T17:37:46.842Z,6.17
2022-12-15T17:39:42.915Z,6.17
2022-12-15T17:42:23.300Z,6.17
2022-12-15T17:44:04.334Z,6.17
2022-12-15T17:46:16.255Z,6.17
2022-12-15T17:47:43.705Z,6.17
2022-12-15T17:49:48.422Z,6.17
2022-12-15T17:51:42.694Z,6.17
2022-12-15T17:53:43.644Z,6.17
2022-12-15T17:55:46.769Z,6.17
2022-12-15T17:57:42.922Z,6.17
2022-12-15T17:59:43.176Z,6.17
2022-12-15T18:01:53.072Z,6.17
2022-12-15T18:03:47.470Z,6.17
2022-12-15T18:05:44.056Z,6.17
2022-12-15T18:07:47.629Z,6.17
2022-12-15T18:09:42.780Z,6.17
2022-12-15T18:11:43.167Z,6.17
2022-12-15T18:13:46.949Z,6.17
2022-12-15T18:15:43.093Z,6.17
2022-12-15T18:17:43.501Z,6.17
2022-12-15T18:19:46.580Z,6.17
2022-12-15T18:21:43.539Z,6.17
2022-12-15T18:23:43.407Z,6.17
2022-12-15T18:25:43.538Z,6.17
2022-12-15T18:27:45.357Z,6.17
2022-12-15T18:29:43.055Z,6.17
2022-12-15T18:31:43.736Z,6215.33
2022-12-15T18:33:44.112Z,6215.33
2022-12-15T18:35:46.444Z,6215.33
2022-12-15T18:37:42.917Z,6.87
2022-12-15T18:39:43.251Z,6.87
2022-12-15T18:41:46.814Z,6.87
2022-12-15T18:43:43.602Z,6.87
2022-12-15T18:45:43.242Z,6.87
2022-12-15T18:47:45.349Z,6.87
2022-12-15T18:49:42.826Z,6.87
2022-12-15T18:51:43.148Z,6.87
2022-12-15T18:53:48.849Z,6.87
2022-12-15T18:55:42.987Z,6.87
2022-12-15T18:57:43.085Z,6.87
2022-12-15T18:59:45.835Z,6.87
2022-12-15T19:01:47.971Z,6.87
2022-12-15T19:03:45.766Z,6.87
2022-12-15T19:05:42.883Z,6.87
2022-12-15T19:07:45.011Z,6.87
2022-12-15T19:09:42.517Z,6.87
2022-12-15T19:11:43.293Z,6.87
2022-12-15T19:13:44.456Z,6.87
2022-12-15T19:15:42.956Z,6.87
2022-12-15T19:17:43.839Z,6.87
2022-12-15T19:19:50.858Z,6.87
2022-12-15T19:21:43.046Z,6.87
2022-12-15T19:23:43.876Z,6.87
2022-12-15T19:25:48.583Z,6.87
2022-12-15T19:27:43.038Z,6.87
2022-12-15T19:29:43.451Z,6.87
2022-12-15T19:31:50.205Z,6.87
2022-12-15T19:33:43.789Z,6.87
2022-12-15T19:35:43.546Z,6.87
2022-12-15T19:37:44.603Z,6.87
2022-12-15T19:39:43.158Z,6.87
2022-12-15T19:41:42.782Z,6.87
2022-12-15T19:43:44.258Z,6.87
2022-12-15T19:45:43.568Z,6.87
2022-12-15T19:47:43.104Z,6.87
2022-12-15T19:49:43.478Z,6.87
2022-12-15T19:51:42.609Z,6.87
2022-12-15T19:53:43.534Z,6.87
2022-12-15T19:55:43.194Z,6.87
2022-12-15T19:57:43.693Z,6.87
2022-12-15T19:59:47.125Z,6.87
2022-12-15T20:01:44.741Z,6.87
2022-12-15T20:03:45.715Z,6.87
2022-12-15T20:05:43.616Z,6.87
2022-12-15T20:07:42.568Z,6.87
2022-12-15T20:09:42.755Z,6.87
2022-12-15T20:11:51.708Z,6.87
2022-12-15T20:13:43.653Z,6.87
2022-12-15T20:15:49.361Z,6.87
2022-12-15T20:17:43.701Z,6.87
2022-12-15T20:19:43.422Z,6.87
2022-12-15T20:21:45.360Z,6.87
2022-12-15T20:23:44.129Z,6.87
2022-12-15T20:25:42.829Z,6.87
2022-12-15T20:27:45.764Z,6.87
2022-12-15T20:29:42.641Z,6.87
2022-12-15T20:31:43.291Z,6.87
2022-12-15T20:33:46.776Z,6.87
2022-12-15T20:35:43.008Z,6.87
2022-12-15T20:37:42.993Z,6.87
2022-12-15T20:39:42.473Z,6.87
2022-12-15T20:41:44.413Z,6.87
2022-12-15T20:43:44.117Z,6.87
2022-12-15T20:45:43.024Z,6.87
2022-12-15T20:47:43.747Z,6.87
2022-12-15T20:49:42.821Z,6.87
2022-12-15T20:51:44.057Z,6.87
2022-12-15T20:53:44.360Z,6.87
2022-12-15T20:55:42.775Z,6.87
2022-12-15T20:57:43.291Z,6.87
2022-12-15T20:59:51.531Z,6.87
2022-12-15T21:01:48.819Z,6.87
2022-12-15T21:03:45.551Z,6.87
2022-12-15T21:05:43.100Z,6.87
2022-12-15T21:07:50.720Z,6.87
2022-12-15T21:09:42.619Z,6.87
2022-12-15T21:11:43.286Z,6.87
2022-12-15T21:13:50.274Z,6.87
2022-12-15T21:15:42.994Z,6.87
2022-12-15T21:17:58.010Z,6.87
2022-12-15T21:20:51.321Z,6.87
2022-12-15T21:21:43.411Z,6.87
2022-12-15T21:23:42.977Z,6.87
2022-12-15T21:25:43.417Z,6.87
2022-12-15T21:27:42.901Z,6.87
2022-12-15T21:29:48.758Z,6.87
2022-12-15T21:31:43.214Z,6.87
2022-12-15T21:33:42.947Z,6.87
2022-12-15T21:35:43.445Z,6.87
2022-12-15T21:37:42.841Z,6.87
2022-12-15T21:39:44.006Z,6.87
2022-12-15T21:41:44.941Z,6.87
2022-12-15T21:43:43.375Z,6.87
2022-12-15T21:45:43.392Z,14719.8
2022-12-15T21:47:47.962Z,14719.8
2022-12-15T21:49:43.634Z,14719.8
2022-12-15T21:51:42.719Z,14719.8
2022-12-15T21:53:43.239Z,14719.8
2022-12-15T21:55:51.146Z,14719.8
2022-12-15T21:57:43.200Z,14719.8
2022-12-15T21:59:43.625Z,14719.8
2022-12-15T22:01:54.420Z,14719.8
2022-12-15T22:03:44.304Z,14719.8
2022-12-15T22:05:43.459Z,14719.8
2022-12-15T22:07:47.116Z,14719.8
2022-12-15T22:09:43.809Z,14719.8
2022-12-15T22:11:43.130Z,14719.8
2022-12-15T22:13:45.146Z,14719.8
2022-12-15T22:15:42.920Z,14719.8
2022-12-15T22:17:43.962Z,14719.8
2022-12-15T22:19:43.984Z,14719.8
2022-12-15T22:21:43.007Z,14719.8
2022-12-15T22:23:50.946Z,14719.8
2022-12-15T22:25:42.938Z,14719.8
2022-12-15T22:27:43.277Z,14719.8
2022-12-15T22:29:43.168Z,14719.8
2022-12-15T22:31:43.383Z,14719.8
2022-12-15T22:33:43.480Z,14719.8
2022-12-15T22:35:42.947Z,14719.8
2022-12-15T22:37:43.794Z,14719.8
2022-12-15T22:39:50.961Z,14719.8
2022-12-15T22:41:43.280Z,14719.8
2022-12-15T22:43:42.644Z,14719.8
2022-12-15T22:45:43.028Z,14719.8
2022-12-15T22:47:43.863Z,14719.8
2022-12-15T22:49:43.416Z,14719.8
2022-12-15T22:51:43.207Z,14719.8
2022-12-15T22:53:42.420Z,14719.8
2022-12-15T22:55:43.028Z,14719.8
2022-12-15T22:57:43.233Z,14719.8
2022-12-15T22:59:42.959Z,14719.8
2022-12-15T23:01:51.768Z,14719.8
2022-12-15T23:03:44.606Z,14719.8
2022-12-15T23:05:42.796Z,14719.8
2022-12-15T23:07:43.015Z,14719.8
2022-12-15T23:09:50.279Z,14719.8
2022-12-15T23:11:42.918Z,14719.8
2022-12-15T23:13:43.994Z,14719.8
2022-12-15T23:15:44.394Z,14719.8
2022-12-15T23:17:43.446Z,14719.8
2022-12-15T23:19:43.896Z,14719.8
2022-12-15T23:21:42.756Z,14719.8
2022-12-15T23:23:43.515Z,14719.8
2022-12-15T23:25:43.517Z,14719.8
2022-12-15T23:27:42.765Z,14719.8
2022-12-15T23:29:42.993Z,14719.8
2022-12-15T23:31:44.313Z,14719.8
2022-12-15T23:33:43.436Z,14719.8
2022-12-15T23:35:43.286Z,14719.8
2022-12-15T23:37:43.472Z,14719.8
2022-12-15T23:39:42.892Z,14719.8
2022-12-15T23:41:49.315Z,14719.8
2022-12-15T23:43:43.204Z,14719.8
2022-12-15T23:45:43.546Z,14719.8
2022-12-15T23:47:43.867Z,14719.8
2022-12-15T23:49:43.229Z,14719.8
2022-12-15T23:51:43.696Z,14719.8
2022-12-15T23:53:48.389Z,14719.8
2022-12-15T23:55:43.318Z,14719.8
2022-12-15T23:57:43.606Z,14719.8
2022-12-15T23:59:42.650Z,14719.8
